Time;durP1;ratioP1;P1;durP2;ratioP2;P2;SDS_P1;SDS_P2;PMS_P1;PMS_P2;Temp;Humidity;BMP_temperature;BMP_pressure;BME280_temperature;BME280_humidity;BME280_pressure;Samples;Min_cycle;Max_cycle;Signal;HPM_P1;HPM_P2
2023/09/21 00:01:38;;;;;;;9.32;4.82;;;;;;;16.32;74.30;94979.81;5092802;28;20036;-73
2023/09/21 00:04:04;;;;;;;8.32;4.82;;;;;;;16.19;74.33;94977.66;5093926;28;20451;-73
2023/09/21 00:06:30;;;;;;;7.05;4.82;;;;;;;16.27;74.24;94982.94;5093903;28;20477;-73
2023/09/21 00:08:55;;;;;;;7.30;5.00;;;;;;;16.23;74.38;94976.34;5094017;28;20040;-73
2023/09/21 00:11:21;;;;;;;8.50;5.00;;;;;;;16.28;74.31;94981.94;5092529;28;20482;-73
2023/09/21 00:13:46;;;;;;;7.55;4.90;;;;;;;16.30;74.32;94989.66;5092489;28;20043;-74
2023/09/21 00:16:12;;;;;;;7.65;4.93;;;;;;;16.27;74.01;94964.59;5093787;28;20029;-73
2023/09/21 00:18:45;;;;;;;7.07;4.70;;;;;;;16.34;73.69;94983.13;5075442;28;20028;-73
2023/09/21 00:21:12;;;;;;;8.10;4.78;;;;;;;16.27;73.92;94982.94;5092565;28;20418;-73
2023/09/21 00:23:37;;;;;;;7.25;5.05;;;;;;;16.19;74.10;94979.47;5093993;28;20020;-73
2023/09/21 00:26:04;;;;;;;7.40;4.53;;;;;;;16.14;74.17;94986.97;5075497;28;20047;-73
2023/09/21 00:28:29;;;;;;;8.10;4.88;;;;;;;16.15;74.04;94978.94;5093813;28;20055;-73
2023/09/21 00:30:58;;;;;;;12.25;4.97;;;;;;;16.18;73.97;94988.28;5092275;28;20040;-73
2023/09/21 00:33:25;;;;;;;11.32;5.00;;;;;;;16.01;74.48;94980.34;5092304;28;20030;-74
2023/09/21 00:35:51;;;;;;;7.05;4.85;;;;;;;16.16;73.83;94974.50;5075443;28;20427;-73
2023/09/21 00:38:18;;;;;;;7.72;4.45;;;;;;;16.27;73.39;94988.19;5093704;28;20036;-73
2023/09/21 00:40:43;;;;;;;6.72;4.63;;;;;;;16.31;73.26;94994.72;5092038;28;20032;-74
2023/09/21 00:43:12;;;;;;;6.03;5.10;;;;;;;16.34;73.03;94990.97;5093612;28;20024;-73
2023/09/21 00:45:38;;;;;;;8.98;4.80;;;;;;;16.35;72.87;94997.84;5075581;28;20071;-73
2023/09/21 00:48:07;;;;;;;7.88;4.90;;;;;;;16.32;73.22;95000.78;5058365;28;20511;-73
2023/09/21 00:50:35;;;;;;;11.10;4.97;;;;;;;16.33;73.55;95020.81;5075541;28;20068;-73
2023/09/21 00:53:00;;;;;;;7.82;5.18;;;;;;;16.37;73.13;95001.16;5075134;28;20024;-73
2023/09/21 00:55:30;;;;;;;8.30;5.20;;;;;;;16.42;73.10;95017.22;5091861;28;20043;-73
2023/09/21 00:57:59;;;;;;;7.68;5.00;;;;;;;16.51;72.63;95021.53;5075360;28;20542;-73
2023/09/21 01:00:25;;;;;;;9.07;5.10;;;;;;;16.42;73.05;95029.53;5075257;28;20024;-73
2023/09/21 01:02:50;;;;;;;9.38;4.78;;;;;;;16.42;73.32;95027.72;5074671;28;20047;-73
2023/09/21 01:05:16;;;;;;;8.15;4.65;;;;;;;16.54;72.93;95021.19;5091668;28;20495;-73
2023/09/21 01:07:43;;;;;;;7.70;5.10;;;;;;;16.51;72.66;95021.53;5092520;28;20078;-73
2023/09/21 01:10:13;;;;;;;10.77;4.75;;;;;;;16.62;72.34;95019.59;5092693;28;20024;-73
2023/09/21 01:12:38;;;;;;;8.97;5.13;;;;;;;16.49;72.05;95013.00;5091640;28;20309;-73
2023/09/21 01:15:11;;;;;;;5.25;4.75;;;;;;;16.59;72.22;95017.28;5057916;28;20275;-73
2023/09/21 01:17:41;;;;;;;7.55;5.05;;;;;;;16.54;72.42;95015.94;5075091;28;20177;-73
2023/09/21 01:22:48;;;;;;;9.38;5.15;;;;;;;16.52;73.44;94999.59;5075937;28;20118;-73
2023/09/21 01:25:15;;;;;;;;;;;;;;;16.63;74.08;94987.13;5091741;28;20039;-73
2023/09/21 01:27:40;;;;;;;7.05;4.78;;;;;;;16.49;74.37;94985.94;5091121;28;19916;-73
2023/09/21 01:30:09;;;;;;;7.20;5.18;;;;;;;16.27;74.85;94948.06;5092394;28;20418;-73
2023/09/21 01:32:34;;;;;;;7.15;4.68;;;;;;;16.43;75.06;94973.47;5092410;28;20047;-73
2023/09/21 01:35:00;;;;;;;7.53;4.88;;;;;;;16.24;75.27;94971.94;5092262;28;20486;-73
2023/09/21 01:37:27;;;;;;;9.48;5.20;;;;;;;16.20;75.56;94970.63;5092397;28;20036;-73
2023/09/21 01:39:52;;;;;;;8.15;5.18;;;;;;;16.09;75.55;94954.19;5090933;28;20043;-73
2023/09/21 01:42:17;;;;;;;9.88;4.88;;;;;;;16.19;75.25;94966.38;5073921;28;20055;-73
2023/09/21 01:44:43;;;;;;;5.78;4.63;;;;;;;16.11;75.32;94977.63;5090837;28;20463;-73
2023/09/21 01:47:09;;;;;;;7.53;4.72;;;;;;;15.87;76.05;94954.72;5073960;28;20032;-73
2023/09/21 01:49:34;;;;;;;6.78;4.78;;;;;;;15.97;75.82;94965.13;5090706;28;20432;-73
2023/09/21 01:51:59;;;;;;;9.20;5.10;;;;;;;15.91;76.15;94956.09;5091994;28;20093;-73
2023/09/21 01:54:27;;;;;;;7.25;5.10;;;;;;;15.89;75.87;94952.78;5091999;28;20028;-73
2023/09/21 01:56:54;;;;;;;9.40;5.15;;;;;;;15.73;76.11;94926.50;5091668;28;20468;-74
2023/09/21 01:59:19;;;;;;;7.35;5.38;;;;;;;15.97;76.16;94952.81;5091778;28;20060;-73
2023/09/21 02:01:48;;;;;;;7.20;4.88;;;;;;;16.03;75.86;94954.81;5090440;28;20466;-73
2023/09/21 02:04:13;;;;;;;11.50;5.30;;;;;;;16.11;75.72;94953.22;5074124;28;20028;-73
2023/09/21 02:06:40;;;;;;;9.02;5.07;;;;;;;16.21;75.25;94940.78;5091719;28;20198;-73
2023/09/21 02:09:05;;;;;;;7.70;4.93;;;;;;;16.21;75.27;94928.50;5092046;28;20059;-74
2023/09/21 02:11:30;;;;;;;9.88;5.85;;;;;;;16.22;75.03;94927.53;5091494;28;20069;-73
2023/09/21 02:13:56;;;;;;;7.95;5.40;;;;;;;16.36;75.54;94925.31;5090904;28;20036;-73
2023/09/21 02:16:23;;;;;;;7.35;5.13;;;;;;;16.39;75.33;94917.94;5091704;28;20081;-73
2023/09/21 02:18:48;;;;;;;6.88;4.65;;;;;;;16.35;74.94;94919.22;5090177;28;20041;-73
2023/09/21 02:21:17;;;;;;;6.57;4.85;;;;;;;16.36;74.94;94918.25;5091442;28;20496;-73
2023/09/21 02:23:42;;;;;;;6.70;5.13;;;;;;;16.22;75.11;94913.63;5091770;28;20455;-73
2023/09/21 02:26:09;;;;;;;7.00;5.07;;;;;;;16.11;75.12;94903.44;5091362;28;20032;-73
2023/09/21 02:28:34;;;;;;;10.90;4.82;;;;;;;16.13;75.38;94910.16;5091597;28;20478;-73
2023/09/21 02:31:04;;;;;;;7.07;5.00;;;;;;;16.07;74.99;94901.13;5091250;28;20028;-73
2023/09/21 02:33:29;;;;;;;6.70;4.68;;;;;;;16.09;74.72;94893.91;5090167;28;20028;-73
2023/09/21 02:35:55;;;;;;;8.05;5.28;;;;;;;16.24;74.56;94914.25;5091223;28;20085;-73
2023/09/21 02:38:20;;;;;;;8.75;4.88;;;;;;;16.06;75.14;94917.81;5091537;28;20374;-73
2023/09/21 02:40:46;;;;;;;8.70;4.82;;;;;;;16.21;74.73;94930.31;5089974;28;20045;-73
2023/09/21 02:43:11;;;;;;;7.22;4.65;;;;;;;16.14;74.33;94913.59;5090007;28;20024;-73
2023/09/21 02:45:37;;;;;;;7.80;5.18;;;;;;;16.02;74.30;94915.69;5089871;28;20032;-73
2023/09/21 02:48:03;;;;;;;7.43;4.80;;;;;;;16.01;74.94;94922.69;5089865;28;20051;-73
2023/09/21 02:50:29;;;;;;;8.98;4.82;;;;;;;15.97;75.29;94925.81;5089796;28;20115;-73
2023/09/21 02:52:56;;;;;;;8.90;5.30;;;;;;;15.99;75.07;94923.84;5089826;28;20457;-73
2023/09/21 02:55:26;;;;;;;8.18;4.85;;;;;;;15.88;75.88;94924.97;5090211;28;20020;-73
2023/09/21 02:58:00;;;;;;;8.17;5.10;;;;;;;15.99;75.24;94932.53;5089598;28;20101;-73
2023/09/21 03:00:34;;;;;;;7.32;5.20;;;;;;;16.06;74.75;94933.53;5056388;28;20043;-73
2023/09/21 03:03:04;;;;;;;9.07;4.75;;;;;;;16.06;74.53;94938.78;5074213;28;20024;-73
2023/09/21 03:05:30;;;;;;;9.68;5.38;;;;;;;16.17;74.02;94929.00;5089732;28;20036;-73
2023/09/21 03:07:56;;;;;;;5.85;4.32;;;;;;;16.20;74.90;94918.19;5089691;28;20094;-73
2023/09/21 03:10:22;;;;;;;8.15;4.80;;;;;;;16.19;74.85;94930.50;5073165;28;20072;-73
2023/09/21 03:12:48;;;;;;;7.53;4.93;;;;;;;16.08;74.82;94928.97;5089600;28;20032;-73
2023/09/21 03:15:14;;;;;;;7.03;4.93;;;;;;;16.04;75.11;94930.25;5089605;28;20085;-74
2023/09/21 03:17:43;;;;;;;7.25;4.55;;;;;;;15.94;75.10;94932.19;5089588;28;20031;-73
2023/09/21 03:20:12;;;;;;;6.47;5.00;;;;;;;15.99;76.39;94931.69;5090725;28;20043;-73
2023/09/21 03:22:39;;;;;;;8.65;5.13;;;;;;;16.18;75.98;94933.25;5089521;28;20074;-73
2023/09/21 03:25:11;;;;;;;9.77;6.13;;;;;;;16.12;75.91;94947.00;5057283;28;20032;-73
2023/09/21 03:27:37;;;;;;;6.82;4.57;;;;;;;15.92;76.21;94949.84;5077309;28;20105;-73
2023/09/21 03:30:05;;;;;;;8.65;6.22;;;;;;;15.74;76.71;94910.66;5094873;28;20064;-73
2023/09/21 03:32:31;;;;;;;12.10;5.40;;;;;;;15.76;77.23;94944.53;5094902;28;20039;-73
2023/09/21 03:34:56;;;;;;;13.80;5.53;;;;;;;15.86;77.26;94948.69;5094587;28;20040;-73
2023/09/21 03:37:22;;;;;;;8.27;5.07;;;;;;;15.77;76.97;94940.94;5094403;28;20028;-73
2023/09/21 03:39:47;;;;;;;7.35;4.85;;;;;;;15.72;76.85;94940.59;5093239;28;20032;-73
2023/09/21 03:42:12;;;;;;;8.75;4.90;;;;;;;15.85;76.46;94940.97;5093211;28;20031;-73
2023/09/21 03:44:38;;;;;;;10.80;5.40;;;;;;;15.72;76.69;94930.13;5094384;28;20476;-73
2023/09/21 03:47:04;;;;;;;6.65;5.57;;;;;;;15.77;76.53;94928.66;5094363;28;20028;-73
2023/09/21 03:49:34;;;;;;;8.65;5.30;;;;;;;15.61;76.30;94905.81;5094220;28;20036;-73
2023/09/21 03:52:00;;;;;;;6.60;5.30;;;;;;;15.86;76.19;94929.53;5093324;28;20031;-73
2023/09/21 03:54:26;;;;;;;7.65;4.90;;;;;;;15.75;76.20;94935.03;5094223;28;20036;-73
2023/09/21 03:56:52;;;;;;;10.43;5.35;;;;;;;15.81;76.00;94926.56;5094325;28;20102;-73
2023/09/21 03:59:17;;;;;;;9.43;4.90;;;;;;;15.73;76.06;94921.28;5092873;28;20410;-73
2023/09/21 04:01:43;;;;;;;8.43;5.35;;;;;;;15.52;75.94;94888.41;5092706;28;20563;-73
2023/09/21 04:04:17;;;;;;;9.32;5.63;;;;;;;15.70;75.64;94909.31;5092816;28;20082;-73
2023/09/21 04:06:43;;;;;;;9.20;4.93;;;;;;;15.79;75.85;94931.13;5092817;28;20028;-73
2023/09/21 04:09:09;;;;;;;8.93;4.97;;;;;;;15.82;75.25;94920.31;5076091;28;20092;-73
2023/09/21 04:11:34;;;;;;;8.68;5.35;;;;;;;15.81;75.50;94923.94;5092643;28;20410;-73
2023/09/21 04:14:00;;;;;;;7.35;5.38;;;;;;;15.74;75.75;94928.13;5093760;28;20032;-73
2023/09/21 04:16:26;;;;;;;7.45;5.20;;;;;;;15.80;75.03;94927.53;5075523;28;20027;-73
2023/09/21 04:18:52;;;;;;;7.25;4.65;;;;;;;15.85;74.97;94933.09;5075717;28;20474;-73
2023/09/21 04:21:17;;;;;;;6.82;4.60;;;;;;;15.82;74.10;94905.47;5093718;28;20020;-73
2023/09/21 04:23:43;;;;;;;9.05;5.03;;;;;;;15.87;74.76;94933.78;5092604;28;20066;-73
2023/09/21 04:26:10;;;;;;;7.47;5.35;;;;;;;15.85;74.79;94931.34;5075512;28;20055;-73
2023/09/21 04:28:35;;;;;;;6.82;4.45;;;;;;;15.84;74.61;94927.06;5058922;28;20067;-73
2023/09/21 04:31:01;;;;;;;8.55;4.88;;;;;;;15.82;74.85;94931.66;5092326;28;20047;-73
2023/09/21 04:33:26;;;;;;;8.75;4.72;;;;;;;15.87;74.24;94939.00;5092351;28;20024;-73
2023/09/21 04:35:52;;;;;;;8.68;4.68;;;;;;;15.65;74.04;94899.25;5093495;28;20032;-73
2023/09/21 04:38:17;;;;;;;8.23;5.30;;;;;;;15.95;73.89;94941.69;5093145;28;20085;-73
2023/09/21 04:40:44;;;;;;;8.50;5.28;;;;;;;15.90;73.59;94935.25;5093325;28;20056;-73
2023/09/21 04:43:09;;;;;;;8.68;4.50;;;;;;;16.06;73.01;94935.34;5093580;28;20493;-73
2023/09/21 04:45:35;;;;;;;7.95;4.82;;;;;;;16.01;72.91;94920.09;5075189;28;20041;-73
2023/09/21 04:48:03;;;;;;;7.78;4.25;;;;;;;15.96;73.34;94922.34;5092039;28;20020;-73
2023/09/21 04:50:28;;;;;;;9.68;4.70;;;;;;;15.93;73.42;94916.63;5091987;28;20113;-73
2023/09/21 04:52:54;;;;;;;7.35;4.60;;;;;;;16.26;72.69;94933.28;5075101;28;20028;-73
2023/09/21 04:55:19;;;;;;;7.15;5.50;;;;;;;16.21;73.51;94928.50;5093319;28;20028;-73
2023/09/21 04:57:45;;;;;;;11.48;5.78;;;;;;;16.36;73.13;94926.13;5092916;28;20071;-73
2023/09/21 05:00:14;;;;;;;11.45;5.43;;;;;;;16.37;72.98;94938.22;5092973;28;20028;-73
2023/09/21 05:02:40;;;;;;;7.30;5.03;;;;;;;16.23;73.10;94923.13;5092966;28;20039;-73
2023/09/21 05:05:06;;;;;;;7.32;5.20;;;;;;;16.27;72.63;94919.22;5091721;28;20020;-73
2023/09/21 05:07:31;;;;;;;7.53;4.78;;;;;;;16.33;71.88;94923.00;5091593;28;20028;-73
2023/09/21 05:09:56;;;;;;;6.00;4.35;;;;;;;16.44;71.41;94934.00;5091502;28;20089;-73
2023/09/21 05:12:22;;;;;;;5.57;4.47;;;;;;;16.44;71.29;94933.19;5092896;28;20040;-73
2023/09/21 05:14:48;;;;;;;7.35;4.05;;;;;;;16.61;70.28;94936.66;5092673;28;20032;-73
2023/09/21 05:17:17;;;;;;;7.85;4.45;;;;;;;16.40;70.64;94927.41;5074560;28;20032;-73
2023/09/21 05:19:42;;;;;;;8.10;4.28;;;;;;;16.59;70.18;94943.88;5091285;28;20107;-73
2023/09/21 05:22:09;;;;;;;7.85;4.30;;;;;;;16.53;70.28;94940.91;5091276;28;20095;-73
2023/09/21 05:24:36;;;;;;;7.03;4.20;;;;;;;16.63;69.90;94946.03;5091287;28;20073;-73
2023/09/21 05:27:01;;;;;;;6.30;4.50;;;;;;;16.73;69.54;94943.22;5057928;28;20577;-73
2023/09/21 05:29:27;;;;;;;7.05;4.25;;;;;;;16.78;69.80;94935.75;5092283;28;20051;-73
2023/09/21 05:31:52;;;;;;;6.38;4.10;;;;;;;16.88;69.44;94946.06;5092533;28;20028;-73
2023/09/21 05:34:17;;;;;;;9.15;5.90;;;;;;;16.81;72.08;94945.91;5092378;28;20028;-73
2023/09/21 05:36:46;;;;;;;9.43;5.47;;;;;;;16.98;72.21;94928.38;5090913;28;20027;-73
2023/09/21 05:39:19;;;;;;;8.95;5.55;;;;;;;17.05;70.97;94936.41;5092453;28;20024;-73
2023/09/21 05:41:44;;;;;;;8.40;5.90;;;;;;;17.14;71.92;94938.06;5090888;28;20035;-73
2023/09/21 05:44:10;;;;;;;10.20;6.00;;;;;;;17.32;71.63;94941.31;5090921;28;20024;-73
2023/09/21 05:46:35;;;;;;;9.38;5.78;;;;;;;17.20;72.12;94943.47;5073752;28;20016;-73
2023/09/21 05:49:03;;;;;;;10.00;5.85;;;;;;;17.12;72.18;94940.84;5090994;28;20039;-73
2023/09/21 05:51:29;;;;;;;11.15;5.85;;;;;;;17.22;71.73;94924.09;5092013;28;20020;-73
2023/09/21 05:53:54;;;;;;;8.60;6.53;;;;;;;17.40;71.49;94948.38;5091892;28;20028;-73
2023/09/21 05:56:20;;;;;;;8.63;6.63;;;;;;;17.59;70.50;94948.03;5073604;28;20413;-73
2023/09/21 05:58:46;;;;;;;11.68;6.30;;;;;;;17.67;70.37;94939.31;5091523;28;20051;-73
2023/09/21 06:01:12;;;;;;;11.77;6.03;;;;;;;17.92;69.39;94939.28;5091775;28;20020;-73
2023/09/21 06:03:37;;;;;;;9.32;5.88;;;;;;;17.79;69.91;94937.19;5092118;28;20032;-73
2023/09/21 06:06:06;;;;;;;8.50;6.38;;;;;;;17.68;70.33;94930.44;5091773;28;20500;-73
2023/09/21 06:08:32;;;;;;;11.00;6.03;;;;;;;17.75;70.18;94941.94;5091994;28;20054;-73
2023/09/21 06:10:57;;;;;;;12.05;5.25;;;;;;;17.89;69.94;94950.16;5091579;28;20482;-73
2023/09/21 06:13:25;;;;;;;7.53;5.07;;;;;;;18.30;68.70;94948.16;5090478;28;20039;-74
2023/09/21 06:15:50;;;;;;;8.73;5.47;;;;;;;18.25;68.38;94948.69;5090279;28;20020;-73
2023/09/21 06:18:17;;;;;;;7.30;5.47;;;;;;;17.80;70.17;94934.41;5073452;28;20395;-73
2023/09/21 06:20:43;;;;;;;8.65;5.57;;;;;;;17.91;70.18;94945.50;5091337;28;20506;-73
2023/09/21 06:23:08;;;;;;;9.85;5.70;;;;;;;17.81;69.80;94912.38;5056785;28;20058;-73
2023/09/21 06:25:34;;;;;;;10.15;5.75;;;;;;;18.12;70.03;94952.84;5090132;28;20027;-73
2023/09/21 06:28:00;;;;;;;10.95;6.07;;;;;;;18.02;70.19;94951.22;5073358;28;20474;-73
2023/09/21 06:30:26;;;;;;;12.85;7.18;;;;;;;17.97;70.51;94956.19;5091357;28;20032;-73
2023/09/21 06:32:55;;;;;;;11.50;6.35;;;;;;;18.01;70.38;94956.66;5091441;28;20111;-73
2023/09/21 06:35:23;;;;;;;13.70;6.47;;;;;;;17.99;70.41;94951.56;5073634;28;20028;-73
2023/09/21 06:37:53;;;;;;;8.63;5.78;;;;;;;18.27;68.87;94945.88;5089880;28;20039;-73
2023/09/21 06:40:19;;;;;;;8.85;5.75;;;;;;;18.20;69.05;94932.59;5090138;28;20107;-73
2023/09/21 06:42:44;;;;;;;8.20;5.68;;;;;;;18.40;66.73;94919.03;5089940;28;20032;-73
2023/09/21 06:45:10;;;;;;;11.27;5.97;;;;;;;18.35;66.71;94937.94;5089934;28;20032;-73
2023/09/21 06:47:36;;;;;;;13.98;6.00;;;;;;;18.39;66.64;94946.34;5089768;28;20489;-73
2023/09/21 06:50:03;;;;;;;9.52;5.50;;;;;;;18.51;67.17;94952.84;5091257;28;20035;-73
2023/09/21 06:52:28;;;;;;;10.43;5.70;;;;;;;18.69;66.56;94939.41;5091184;28;20044;-73
2023/09/21 06:54:54;;;;;;;7.38;5.25;;;;;;;18.39;65.75;94901.63;5091031;28;20490;-73
2023/09/21 06:57:23;;;;;;;7.75;5.35;;;;;;;18.91;65.06;94932.56;5090945;28;20063;-73
2023/09/21 06:59:49;;;;;;;9.80;5.25;;;;;;;19.26;62.75;94940.88;5073213;28;20454;-73
2023/09/21 07:02:14;;;;;;;9.68;5.28;;;;;;;19.07;64.63;94942.97;5073040;28;20077;-73
2023/09/21 07:04:39;;;;;;;8.02;5.28;;;;;;;18.97;64.83;94950.28;5090932;28;20051;-73
2023/09/21 07:07:06;;;;;;;7.80;5.28;;;;;;;18.86;64.62;94929.63;5090958;28;20075;-73
2023/09/21 07:09:34;;;;;;;12.48;5.55;;;;;;;19.06;64.75;94951.06;5089597;28;20521;-73
2023/09/21 07:12:00;;;;;;;9.13;5.43;;;;;;;19.00;64.69;94915.75;5090705;28;20059;-73
2023/09/21 07:14:26;;;;;;;8.75;6.00;;;;;;;19.03;64.62;94931.19;5091067;28;20052;-73
2023/09/21 07:16:52;;;;;;;7.97;5.22;;;;;;;19.55;63.02;94954.09;5090954;28;20407;-73
2023/09/21 07:19:18;;;;;;;10.05;5.70;;;;;;;19.42;62.12;94935.47;5089476;28;20555;-73
2023/09/21 07:21:43;;;;;;;9.25;5.45;;;;;;;19.62;61.86;94948.94;5089396;28;20040;-73
2023/09/21 07:24:09;;;;;;;12.88;5.85;;;;;;;19.67;62.67;94940.50;5090794;28;20029;-73
2023/09/21 07:26:34;;;;;;;8.10;5.45;;;;;;;19.62;62.78;94949.75;5090720;28;20410;-73
2023/09/21 07:29:05;;;;;;;12.10;6.32;;;;;;;19.66;63.80;94942.34;5090553;28;20485;-73
2023/09/21 07:31:33;;;;;;;12.23;6.18;;;;;;;19.56;63.16;94934.66;5072973;28;20031;-73
2023/09/21 07:33:59;;;;;;;9.07;5.57;;;;;;;19.75;63.09;94943.06;5073180;28;20059;-73
2023/09/21 07:36:25;;;;;;;7.40;5.32;;;;;;;19.76;62.67;94956.06;5089361;28;20077;-73
2023/09/21 07:38:55;;;;;;;7.10;5.72;;;;;;;20.18;61.63;94953.81;5089270;28;20032;-73
2023/09/21 07:41:20;;;;;;;6.80;5.10;;;;;;;20.01;60.96;94946.09;5089155;28;20548;-73
2023/09/21 07:43:46;;;;;;;9.27;4.97;;;;;;;20.13;60.99;94946.44;5089203;28;20043;-73
2023/09/21 07:46:12;;;;;;;10.73;5.40;;;;;;;20.08;61.01;94952.25;5090523;28;20023;-73
2023/09/21 07:48:37;;;;;;;5.47;4.38;;;;;;;20.21;60.08;94956.91;5090813;28;20085;-73
2023/09/21 07:51:06;;;;;;;7.40;4.70;;;;;;;20.19;60.04;94964.16;5089219;28;20029;-73
2023/09/21 07:53:32;;;;;;;7.78;4.75;;;;;;;20.49;58.17;94958.88;5072470;28;20032;-73
2023/09/21 07:56:02;;;;;;;8.80;4.70;;;;;;;20.51;59.09;94957.69;5089243;28;20119;-73
2023/09/21 07:58:28;;;;;;;7.35;4.68;;;;;;;20.73;59.52;94955.13;5089124;28;20498;-73
2023/09/21 08:00:55;;;;;;;8.43;4.88;;;;;;;20.78;58.96;94947.47;5090426;28;20043;-73
2023/09/21 08:03:21;;;;;;;10.65;5.63;;;;;;;20.74;59.40;94948.84;5089180;28;20036;-73
2023/09/21 08:05:47;;;;;;;8.10;6.30;;;;;;;20.85;58.99;94935.16;5090295;28;20082;-73
2023/09/21 08:08:16;;;;;;;7.40;5.00;;;;;;;20.94;59.04;94943.78;5090621;28;20111;-73
2023/09/21 08:10:41;;;;;;;10.23;5.30;;;;;;;21.22;54.68;94912.13;5072542;28;20547;-73
2023/09/21 08:13:08;;;;;;;5.97;4.45;;;;;;;21.37;55.33;94933.25;5091824;28;20032;-73
2023/09/21 08:15:33;;;;;;;6.30;4.50;;;;;;;21.41;55.43;94940.56;5092667;28;20028;-73
2023/09/21 08:18:00;;;;;;;7.03;4.75;;;;;;;21.40;56.52;94946.88;5094076;28;20043;-73
2023/09/21 08:20:26;;;;;;;8.73;4.82;;;;;;;21.23;57.76;94944.66;5092600;28;20060;-73
2023/09/21 08:22:51;;;;;;;7.25;4.70;;;;;;;21.28;57.17;94945.72;5075575;28;20032;-73
2023/09/21 08:25:17;;;;;;;11.98;4.90;;;;;;;21.26;57.09;94947.75;5093773;28;20028;-73
2023/09/21 08:27:42;;;;;;;5.60;4.90;;;;;;;21.07;57.51;94951.81;5092446;28;20028;-73
2023/09/21 08:30:09;;;;;;;10.30;4.85;;;;;;;21.14;56.64;94946.59;5092299;28;20048;-73
2023/09/21 08:32:34;;;;;;;10.40;4.57;;;;;;;20.81;56.88;94917.22;5092362;28;20477;-73
2023/09/21 08:35:00;;;;;;;10.65;7.88;;;;;;;21.30;55.25;94951.63;5093719;28;20039;-73
2023/09/21 08:37:25;;;;;;;6.72;5.00;;;;;;;21.52;54.48;94941.06;5092239;28;20481;-73
2023/09/21 08:39:51;;;;;;;9.43;6.05;;;;;;;21.25;57.20;94946.09;5075263;28;20064;-73
2023/09/21 08:42:16;;;;;;;11.75;8.43;;;;;;;21.11;56.95;94931.13;5092141;28;20028;-73
2023/09/21 08:44:43;;;;;;;21.00;17.55;;;;;;;21.19;56.62;94938.94;5093240;28;20032;-73
2023/09/21 08:47:13;;;;;;;8.88;5.30;;;;;;;21.06;58.07;94938.81;5092007;28;20035;-73
2023/09/21 08:49:41;;;;;;;7.18;4.20;;;;;;;21.39;58.38;94954.97;5091919;28;20043;-73
2023/09/21 08:52:06;;;;;;;5.60;4.65;;;;;;;21.23;57.86;94950.78;5074967;28;20036;-73
2023/09/21 08:54:31;;;;;;;7.72;4.45;;;;;;;21.15;57.38;94927.13;5091909;28;20547;-73
2023/09/21 08:56:57;;;;;;;7.03;4.75;;;;;;;21.36;56.97;94942.94;5074623;28;20043;-73
2023/09/21 08:59:22;;;;;;;6.85;4.68;;;;;;;21.68;57.53;94953.19;5074940;28;20032;-73
2023/09/21 09:01:48;;;;;;;7.15;4.65;;;;;;;21.71;57.64;94950.97;5091591;28;20032;-73
2023/09/21 09:04:14;;;;;;;6.63;4.25;;;;;;;21.68;56.61;94948.72;5074923;28;20028;-73
2023/09/21 09:06:40;;;;;;;6.97;4.63;;;;;;;21.74;59.79;94957.72;5091635;28;20078;-73
2023/09/21 09:09:06;;;;;;;6.18;4.47;;;;;;;21.74;63.19;94958.53;5092691;28;20429;-73
2023/09/21 09:11:44;;;;;;;6.47;4.55;;;;;;;21.70;61.18;94951.16;5092755;28;20032;-73
2023/09/21 09:14:13;;;;;;;6.93;4.68;;;;;;;21.68;61.49;94954.00;5075225;28;20039;-73
2023/09/21 09:16:38;;;;;;;9.60;4.72;;;;;;;21.49;61.01;94920.31;5092691;28;20751;-73
2023/09/21 09:19:06;;;;;;;6.25;4.13;;;;;;;21.48;57.39;94930.06;5074624;28;20031;-73
2023/09/21 09:21:32;;;;;;;5.75;4.40;;;;;;;21.57;57.10;94936.84;5091317;28;20028;-73
2023/09/21 09:23:57;;;;;;;9.23;4.72;;;;;;;21.32;58.07;94938.25;5091127;28;20034;-73
2023/09/21 09:26:23;;;;;;;7.90;4.80;;;;;;;21.38;58.08;94940.16;5091224;28;20079;-73
2023/09/21 09:28:48;;;;;;;6.18;4.63;;;;;;;21.40;60.29;94925.75;5074209;28;20040;-73
2023/09/21 09:31:18;;;;;;;6.03;4.63;;;;;;;21.64;61.57;94936.88;5092423;28;20027;-73
2023/09/21 09:33:47;;;;;;;10.05;5.20;;;;;;;21.50;60.39;94938.59;5092729;28;20032;-73
2023/09/21 09:36:13;;;;;;;8.32;4.78;;;;;;;21.56;59.55;94937.88;5074468;28;20024;-73
2023/09/21 09:38:38;;;;;;;7.88;4.78;;;;;;;21.68;61.65;94942.63;5091097;28;20036;-73
2023/09/21 09:41:04;;;;;;;9.13;4.97;;;;;;;21.58;59.67;94924.44;5091146;28;20050;-73
2023/09/21 09:43:29;;;;;;;8.38;5.07;;;;;;;21.61;61.04;94938.09;5090867;28;20028;-73
2023/09/21 09:45:55;;;;;;;8.13;4.97;;;;;;;21.76;59.60;94935.38;5073911;28;20091;-73
2023/09/21 09:48:21;;;;;;;9.15;4.90;;;;;;;21.62;59.97;94933.66;5090913;28;20409;-73
2023/09/21 09:50:50;;;;;;;6.32;4.53;;;;;;;21.66;60.08;94934.88;5092021;28;20111;-73
2023/09/21 09:53:17;;;;;;;5.82;4.40;;;;;;;21.68;60.33;94926.78;5090844;28;20024;-73
2023/09/21 09:55:42;;;;;;;5.90;4.65;;;;;;;21.78;58.80;94922.75;5091894;28;20032;-73
2023/09/21 09:58:08;;;;;;;6.75;4.63;;;;;;;21.66;58.73;94924.31;5073577;28;20051;-73
2023/09/21 10:00:39;;;;;;;6.07;4.45;;;;;;;21.79;58.17;94921.75;5091799;28;20024;-74
2023/09/21 10:03:07;;;;;;;6.85;4.30;;;;;;;21.83;58.36;94925.63;5073872;28;20409;-73
2023/09/21 10:05:32;;;;;;;7.55;4.00;;;;;;;21.93;57.71;94914.72;5090578;28;20036;-73
2023/09/21 10:07:59;;;;;;;5.85;4.32;;;;;;;21.90;56.77;94916.91;5090552;28;20031;-73
2023/09/21 10:10:27;;;;;;;5.45;4.18;;;;;;;21.77;57.63;94913.19;5073585;28;20085;-73
2023/09/21 10:12:53;;;;;;;6.55;4.40;;;;;;;21.70;57.77;94899.09;5073652;28;20024;-73
2023/09/21 10:15:22;;;;;;;9.73;5.05;;;;;;;21.73;59.24;94919.91;5090467;28;20024;-74
2023/09/21 10:17:50;;;;;;;5.88;4.53;;;;;;;21.69;59.55;94915.97;5090414;28;20115;-73
2023/09/21 10:20:25;;;;;;;12.07;5.00;;;;;;;21.68;60.19;94914.38;5073741;28;20040;-73
2023/09/21 10:22:52;;;;;;;8.57;5.05;;;;;;;21.80;58.80;94914.63;5074196;28;20032;-73
2023/09/21 10:25:41;;;;;;;6.20;4.50;;;;;;;22.06;57.96;94908.66;5090226;28;20131;-73
2023/09/21 10:28:28;;;;;;;7.20;4.22;;;;;;;22.30;57.42;94910.84;5090351;28;20016;-73
2023/09/21 10:30:54;;;;;;;7.85;5.13;;;;;;;21.94;56.73;94874.03;5091329;28;20036;-73
2023/09/21 10:33:20;;;;;;;8.77;4.70;;;;;;;22.20;56.88;94906.94;5090148;28;20020;-73
2023/09/21 10:35:45;;;;;;;8.65;4.78;;;;;;;22.29;55.95;94900.50;5089540;28;20035;-73
2023/09/21 10:38:20;;;;;;;5.65;3.97;;;;;;;22.55;54.39;94904.25;5091530;28;20389;-73
2023/09/21 10:40:45;;;;;;;6.93;4.03;;;;;;;22.58;54.35;94902.00;5089895;28;20028;-73
2023/09/21 10:43:41;;;;;;;5.32;4.05;;;;;;;22.60;53.92;94905.28;5089936;28;20489;-73
2023/09/21 10:46:17;;;;;;;5.50;4.30;;;;;;;22.98;52.51;94899.47;5091467;28;20036;-74
2023/09/21 10:48:56;;;;;;;6.90;4.00;;;;;;;22.90;53.79;94899.63;5089917;28;20039;-73
2023/09/21 10:51:22;;;;;;;7.22;4.85;;;;;;;22.88;53.81;94901.69;5089945;28;20063;-73
2023/09/21 10:53:48;;;;;;;10.45;4.30;;;;;;;22.97;53.30;94901.31;5089719;28;20490;-73
2023/09/21 10:56:14;;;;;;;8.27;4.18;;;;;;;23.07;53.41;94881.56;5091026;28;20098;-73
2023/09/21 10:58:40;;;;;;;4.82;3.97;;;;;;;22.88;52.49;94885.78;5089704;28;20532;-73
2023/09/21 11:01:06;;;;;;;7.82;4.70;;;;;;;22.93;52.59;94888.66;5089800;28;20105;-73
2023/09/21 11:03:32;;;;;;;7.60;4.57;;;;;;;22.84;52.53;94889.84;5089882;28;20035;-73
2023/09/21 11:05:57;;;;;;;8.00;4.55;;;;;;;22.94;51.25;94877.03;5090911;28;20036;-73
2023/09/21 11:08:25;;;;;;;7.05;4.50;;;;;;;22.79;52.38;94886.97;5089710;28;20058;-73
2023/09/21 11:10:51;;;;;;;7.45;4.70;;;;;;;23.09;52.85;94880.31;5089714;28;20082;-73
2023/09/21 11:13:17;;;;;;;8.93;4.70;;;;;;;22.96;52.05;94852.00;5089866;28;20039;-73
2023/09/21 11:15:43;;;;;;;6.28;5.13;;;;;;;23.22;51.61;94865.47;5089630;28;20032;-73
2023/09/21 11:18:09;;;;;;;5.60;4.32;;;;;;;23.11;51.52;94854.47;5089645;28;20097;-73
2023/09/21 11:20:34;;;;;;;7.15;4.57;;;;;;;23.23;51.48;94872.41;5089487;28;20032;-73
2023/09/21 11:23:01;;;;;;;8.63;4.47;;;;;;;23.17;51.32;94866.06;5072803;28;20024;-73
2023/09/21 11:25:27;;;;;;;6.07;4.30;;;;;;;22.99;52.33;94844.69;5090741;28;20024;-73
2023/09/21 11:27:52;;;;;;;6.93;4.40;;;;;;;22.90;51.58;94821.03;5089481;28;20035;-73
2023/09/21 11:30:18;;;;;;;6.03;4.70;;;;;;;23.17;52.16;94843.03;5090673;28;20036;-73
2023/09/21 11:32:46;;;;;;;6.28;4.43;;;;;;;23.35;52.19;94841.63;5089434;28;20032;-73